Time;durP1;ratioP1;P1;durP2;ratioP2;P2;SDS_P1;SDS_P2;PMS_P1;PMS_P2;Temp;Humidity;BMP_temperature;BMP_pressure;BME280_temperature;BME280_humidity;BME280_pressure;Samples;Min_cycle;Max_cycle;Signal;HPM_P1;HPM_P2
2023/03/20 00:00:03;;;;;;;;;;;8.60;99.90;;;;;;5044395;28;20322;-69
2023/03/20 00:02:33;;;;;;;;;;;8.60;99.90;;;;;;5043907;28;20224;-69
2023/03/20 00:04:59;;;;;;;;;;;8.60;99.90;;;;;;5044152;28;19956;-71
2023/03/20 00:07:26;;;;;;;;;;;8.50;99.90;;;;;;5043591;28;19988;-69
2023/03/20 00:09:53;;;;;;;;;;;8.50;99.90;;;;;;5043958;28;19968;-69
2023/03/20 00:12:24;;;;;;;;;;;8.50;99.90;;;;;;5057684;28;19983;-69
2023/03/20 00:14:51;;;;;;;;;;;8.50;99.90;;;;;;5063833;28;19920;-69
2023/03/20 00:17:19;;;;;;;;;;;8.50;99.90;;;;;;5063274;28;19952;-69
2023/03/20 00:19:46;;;;;;;;;;;8.40;99.90;;;;;;5063699;28;19987;-70
2023/03/20 00:22:12;;;;;;;;;;;8.40;99.90;;;;;;5063596;28;19980;-69
2023/03/20 00:24:39;;;;;;;;;;;8.40;99.90;;;;;;5063545;28;19983;-70
2023/03/20 00:27:06;;;;;;;;;;;8.40;99.90;;;;;;5063196;28;19947;-68
2023/03/20 00:29:34;;;;;;;;;;;8.40;99.90;;;;;;5063300;28;20208;-69
2023/03/20 00:32:00;;;;;;;;;;;8.40;99.90;;;;;;5063456;28;19921;-68
2023/03/20 00:34:30;;;;;;;;;;;8.40;99.90;;;;;;5063676;28;19921;-69
2023/03/20 00:36:56;;;;;;;;;;;8.40;99.90;;;;;;5062575;28;19921;-69
2023/03/20 00:39:26;;;;;;;;;;;8.40;99.90;;;;;;5063016;28;20284;-69
2023/03/20 00:41:53;;;;;;;;;;;8.40;99.90;;;;;;5063510;28;19940;-69
2023/03/20 00:44:22;;;;;;;;;;;8.50;99.90;;;;;;5063507;28;19933;-69
2023/03/20 00:46:51;;;;;;;;;;;8.40;99.90;;;;;;5062407;28;19989;-68
2023/03/20 00:49:25;;;;;;;;;;;8.40;99.90;;;;;;5063350;28;19984;-69
2023/03/20 00:51:51;;;;;;;;;;;8.50;99.90;;;;;;5063421;28;19927;-69
2023/03/20 00:54:18;;;;;;;;;;;8.50;99.90;;;;;;5063424;28;20120;-69
2023/03/20 00:56:46;;;;;;;;;;;8.50;99.90;;;;;;5062315;28;19971;-69
2023/03/20 00:59:16;;;;;;;;;;;8.50;99.90;;;;;;5063159;28;20227;-68
2023/03/20 01:01:42;;;;;;;;;;;8.40;99.90;;;;;;5063006;28;20132;-69
2023/03/20 01:04:11;;;;;;;;;;;8.30;99.90;;;;;;5063397;28;20256;-69
2023/03/20 01:06:38;;;;;;;;;;;8.20;99.90;;;;;;5062783;28;19988;-69
2023/03/20 01:09:04;;;;;;;;;;;8.10;99.90;;;;;;5063303;28;19996;-69
2023/03/20 01:11:31;;;;;;;;;;;8.00;99.90;;;;;;5063216;28;19921;-69
2023/03/20 01:13:58;;;;;;;;;;;8.00;99.90;;;;;;5063131;28;19920;-69
2023/03/20 01:16:25;;;;;;;;;;;7.90;99.90;;;;;;5062513;28;20209;-69
2023/03/20 01:18:52;;;;;;;;;;;7.90;99.90;;;;;;5063193;28;19966;-69
2023/03/20 01:21:21;;;;;;;;;;;7.90;99.90;;;;;;5066257;28;19952;-69
2023/03/20 01:23:48;;;;;;;;;;;7.90;99.90;;;;;;5067220;28;19924;-70
2023/03/20 01:26:22;;;;;;;;;;;7.80;99.90;;;;;;5066598;28;19921;-69
2023/03/20 01:28:49;;;;;;;;;;;7.80;99.90;;;;;;5067100;28;19921;-69
2023/03/20 01:31:16;;;;;;;;;;;7.80;99.90;;;;;;5066722;28;19927;-69
2023/03/20 01:33:43;;;;;;;;;;;7.70;99.90;;;;;;5066687;28;20230;-69
2023/03/20 01:36:10;;;;;;;;;;;7.70;99.90;;;;;;5066405;28;19988;-69
2023/03/20 01:38:39;;;;;;;;;;;7.70;99.90;;;;;;5066622;28;20208;-69
2023/03/20 01:41:07;;;;;;;;;;;7.70;99.90;;;;;;5066931;28;19935;-69
2023/03/20 01:43:34;;;;;;;;;;;7.70;99.90;;;;;;5066959;28;19920;-69
2023/03/20 01:46:02;;;;;;;;;;;7.70;99.90;;;;;;5066245;28;19927;-69
2023/03/20 01:48:35;;;;;;;;;;;7.70;99.90;;;;;;5066592;28;19999;-69
2023/03/20 01:51:02;;;;;;;;;;;7.70;99.90;;;;;;5066770;28;19925;-69
2023/03/20 01:53:29;;;;;;;;;;;7.70;99.90;;;;;;5066714;28;19920;-69
2023/03/20 01:55:58;;;;;;;;;;;7.70;99.90;;;;;;5066275;28;20115;-69
2023/03/20 01:58:28;;;;;;;;;;;7.70;99.90;;;;;;5065981;28;19927;-69
2023/03/20 02:00:54;;;;;;;;;;;7.60;99.90;;;;;;5066469;28;19921;-69
2023/03/20 02:03:21;;;;;;;;;;;7.50;99.90;;;;;;5066490;28;19983;-69
2023/03/20 02:05:48;;;;;;;;;;;7.40;99.90;;;;;;5066038;28;19921;-69
2023/03/20 02:08:19;;;;;;;;;;;7.40;99.90;;;;;;5066215;28;19927;-69
2023/03/20 02:10:46;;;;;;;;;;;7.30;99.90;;;;;;5066427;28;20008;-69
2023/03/20 02:13:15;;;;;;;;;;;7.20;99.90;;;;;;5066483;28;19921;-68
2023/03/20 02:15:53;;;;;;;;;;;7.10;99.90;;;;;;5065655;28;19925;-69
2023/03/20 02:18:19;;;;;;;;;;;7.10;99.90;;;;;;5065903;28;19927;-71
2023/03/20 02:20:54;;;;;;;;;;;7.10;99.90;;;;;;5057325;28;20307;-69
2023/03/20 02:23:38;;;;;;;;;;;7.20;99.90;;;;;;5046320;28;20000;-68
2023/03/20 02:26:21;;;;;;;;;;;7.20;99.90;;;;;;5048947;28;19927;-69
2023/03/20 02:29:06;;;;;;;;;;;7.30;99.90;;;;;;5045891;28;19936;-69
2023/03/20 02:31:59;;;;;;;;;;;7.40;99.90;;;;;;5044759;28;19925;-69
2023/03/20 02:34:38;;;;;;;;;;;7.40;99.90;;;;;;5046098;28;20228;-69
2023/03/20 02:37:31;;;;;;;;;;;7.40;99.90;;;;;;5047718;28;19928;-69
2023/03/20 02:40:01;;;;;;;;;;;7.50;99.90;;;;;;5051263;28;19988;-69
2023/03/20 02:42:34;;;;;;;;;;;7.50;99.90;;;;;;5064502;28;19921;-69
2023/03/20 02:45:04;;;;;;;;;;;7.50;99.90;;;;;;5065509;28;19931;-69
2023/03/20 02:47:33;;;;;;;;;;;7.40;99.90;;;;;;5065513;28;19924;-69
2023/03/20 02:50:03;;;;;;;;;;;7.40;99.90;;;;;;5065353;28;20222;-68
2023/03/20 02:52:34;;;;;;;;;;;7.40;99.90;;;;;;5065718;28;19928;-69
2023/03/20 02:55:08;;;;;;;;;;;7.40;99.90;;;;;;5065362;28;20255;-69
2023/03/20 02:57:41;;;;;;;;;;;7.40;99.90;;;;;;5064918;28;19924;-69
2023/03/20 03:00:09;;;;;;;;;;;7.40;99.90;;;;;;5065788;28;19987;-69
2023/03/20 03:02:38;;;;;;;;;;;7.40;99.90;;;;;;5065114;28;20222;-69
2023/03/20 03:05:11;;;;;;;;;;;7.40;99.90;;;;;;5065374;28;19927;-69
2023/03/20 03:07:41;;;;;;;;;;;7.40;99.90;;;;;;5064775;28;19927;-69
2023/03/20 03:10:11;;;;;;;;;;;7.40;99.90;;;;;;5065088;28;19987;-69
2023/03/20 03:12:40;;;;;;;;;;;7.40;99.90;;;;;;5065254;28;19959;-69
2023/03/20 03:15:10;;;;;;;;;;;7.40;99.90;;;;;;5064851;28;19921;-69
2023/03/20 03:17:39;;;;;;;;;;;7.40;99.90;;;;;;5060505;28;19964;-69
2023/03/20 03:20:10;;;;;;;;;;;7.40;99.90;;;;;;5044422;28;19964;-69
2023/03/20 03:22:36;;;;;;;;;;;7.40;99.90;;;;;;5064563;28;19943;-68
2023/03/20 03:25:05;;;;;;;;;;;7.40;99.90;;;;;;5064759;28;20159;-69
2023/03/20 03:27:35;;;;;;;;;;;7.40;99.90;;;;;;5064528;28;19921;-69
2023/03/20 03:30:03;;;;;;;;;;;7.40;99.90;;;;;;5064656;28;19980;-70
2023/03/20 03:32:31;;;;;;;;;;;7.50;99.90;;;;;;5064396;28;19976;-71
2023/03/20 03:34:59;;;;;;;;;;;7.40;99.90;;;;;;5064763;28;19983;-69
2023/03/20 03:37:42;;;;;;;;;;;7.40;99.90;;;;;;5063894;28;19921;-69
2023/03/20 03:40:16;;;;;;;;;;;7.40;99.90;;;;;;5064622;28;19927;-69
2023/03/20 03:42:45;;;;;;;;;;;7.40;99.90;;;;;;5064437;28;19921;-69
2023/03/20 03:45:16;;;;;;;;;;;7.50;99.90;;;;;;5064058;28;19921;-69
2023/03/20 03:47:44;;;;;;;;;;;7.50;99.90;;;;;;5063715;28;19920;-69
2023/03/20 03:50:12;;;;;;;;;;;7.50;99.90;;;;;;5064626;28;19983;-69
2023/03/20 03:52:40;;;;;;;;;;;7.50;99.90;;;;;;5064432;28;20115;-69
2023/03/20 03:55:09;;;;;;;;;;;7.50;99.90;;;;;;5064107;28;19984;-69
2023/03/20 03:57:40;;;;;;;;;;;7.50;99.90;;;;;;5063881;28;19927;-69
2023/03/20 04:00:08;;;;;;;;;;;7.50;99.90;;;;;;5064499;28;19920;-69
2023/03/20 04:02:35;;;;;;;;;;;7.60;99.90;;;;;;5064324;28;19983;-69
2023/03/20 04:05:03;;;;;;;;;;;7.60;99.90;;;;;;5064244;28;20124;-68
2023/03/20 04:07:29;;;;;;;;;;;7.60;99.90;;;;;;5063526;28;19920;-69
2023/03/20 04:09:56;;;;;;;;;;;7.60;99.90;;;;;;5064157;28;19952;-69
2023/03/20 04:12:33;;;;;;;;;;;7.70;99.90;;;;;;5063871;28;20204;-69
2023/03/20 04:15:02;;;;;;;;;;;7.70;99.90;;;;;;5063727;28;19987;-69
2023/03/20 04:17:28;;;;;;;;;;;7.70;99.90;;;;;;5063362;28;19927;-69
2023/03/20 04:19:55;;;;;;;;;;;7.70;99.90;;;;;;5063936;28;19927;-69
2023/03/20 04:22:22;;;;;;;;;;;7.70;99.90;;;;;;5063544;28;19927;-69
2023/03/20 04:24:50;;;;;;;;;;;7.70;99.90;;;;;;5063765;28;19946;-69
2023/03/20 04:27:16;;;;;;;;;;;7.80;99.90;;;;;;5063093;28;19943;-69
2023/03/20 04:29:43;;;;;;;;;;;7.80;99.90;;;;;;5063369;28;19959;-69
2023/03/20 04:32:11;;;;;;;;;;;7.80;99.90;;;;;;5063536;28;19984;-69
2023/03/20 04:34:38;;;;;;;;;;;7.80;99.90;;;;;;5063828;28;19928;-69
2023/03/20 04:37:07;;;;;;;;;;;7.90;99.90;;;;;;5063029;28;19979;-69
2023/03/20 04:39:33;;;;;;;;;;;7.90;99.90;;;;;;5063805;28;19988;-69
2023/03/20 04:42:00;;;;;;;;;;;7.90;99.90;;;;;;5063650;28;19921;-69
2023/03/20 04:44:27;;;;;;;;;;;7.90;99.90;;;;;;5063850;28;19985;-69
2023/03/20 04:46:53;;;;;;;;;;;7.90;99.90;;;;;;5062591;28;20266;-69
2023/03/20 04:49:28;;;;;;;;;;;7.90;99.90;;;;;;5060855;28;19987;-69
2023/03/20 04:51:55;;;;;;;;;;;7.90;99.90;;;;;;5063441;28;19967;-69
2023/03/20 04:54:21;;;;;;;;;;;7.90;99.90;;;;;;5062828;28;19920;-69
2023/03/20 04:56:48;;;;;;;;;;;7.90;99.90;;;;;;5062180;28;19992;-69
2023/03/20 04:59:15;;;;;;;;;;;7.90;99.90;;;;;;5062467;28;19927;-69
2023/03/20 05:01:41;;;;;;;;;;;7.90;99.90;;;;;;5063325;28;19979;-68
2023/03/20 05:04:08;;;;;;;;;;;7.90;99.90;;;;;;5063153;28;19921;-69
2023/03/20 05:06:36;;;;;;;;;;;7.90;99.90;;;;;;5062745;28;19966;-69
2023/03/20 05:09:03;;;;;;;;;;;8.00;99.90;;;;;;5062940;28;19952;-69
2023/03/20 05:11:30;;;;;;;;;;;7.90;99.90;;;;;;5063370;28;19921;-69
2023/03/20 05:13:56;;;;;;;;;;;7.90;99.90;;;;;;5063085;28;19927;-69
2023/03/20 05:16:25;;;;;;;;;;;7.90;99.90;;;;;;5040982;28;19996;-69
2023/03/20 05:18:52;;;;;;;;;;;7.90;99.90;;;;;;5061053;28;20147;-68
2023/03/20 05:21:18;;;;;;;;;;;7.90;99.90;;;;;;5049781;28;19979;-70
2023/03/20 05:23:46;;;;;;;;;;;7.90;99.90;;;;;;5063184;28;19956;-69
2023/03/20 05:26:13;;;;;;;;;;;7.90;99.90;;;;;;5050365;28;19921;-71
2023/03/20 05:28:39;;;;;;;;;;;7.90;99.90;;;;;;5043929;28;20259;-69
2023/03/20 05:31:06;;;;;;;;;;;7.90;99.90;;;;;;5062838;28;19936;-69
2023/03/20 05:33:33;;;;;;;;;;;7.90;99.90;;;;;;5062866;28;19921;-69
2023/03/20 05:36:00;;;;;;;;;;;8.00;99.90;;;;;;5050766;28;19921;-69
2023/03/20 05:38:26;;;;;;;;;;;8.00;99.90;;;;;;5042855;28;19921;-69
2023/03/20 05:40:57;;;;;;;;;;;8.00;99.90;;;;;;5042978;28;20261;-68
2023/03/20 05:43:24;;;;;;;;;;;8.00;99.90;;;;;;5059112;28;19943;-69
2023/03/20 05:45:51;;;;;;;;;;;8.00;99.90;;;;;;5062560;28;19927;-69
2023/03/20 05:48:18;;;;;;;;;;;8.00;99.90;;;;;;5062739;28;20224;-70
2023/03/20 05:50:44;;;;;;;;;;;8.00;99.90;;;;;;5063089;28;19920;-70
2023/03/20 05:53:11;;;;;;;;;;;8.00;99.90;;;;;;5063064;28;19921;-70
2023/03/20 05:55:38;;;;;;;;;;;8.10;99.90;;;;;;5062845;28;19921;-70
2023/03/20 05:58:06;;;;;;;;;;;8.10;99.90;;;;;;5062624;28;19984;-71
2023/03/20 06:00:32;;;;;;;;;;;8.20;99.90;;;;;;5062576;28;20268;-70
2023/03/20 06:02:59;;;;;;;;;;;8.20;99.90;;;;;;5063019;28;19989;-70
2023/03/20 06:05:26;;;;;;;;;;;8.20;99.90;;;;;;5062927;28;19967;-70
2023/03/20 06:07:52;;;;;;;;;;;8.20;99.90;;;;;;5066284;28;19932;-70
2023/03/20 06:10:19;;;;;;;;;;;8.20;99.90;;;;;;5066525;28;19980;-70
2023/03/20 06:12:46;;;;;;;;;;;8.10;99.90;;;;;;5066456;28;19959;-70
2023/03/20 06:15:14;;;;;;;;;;;8.10;99.90;;;;;;5066209;28;20260;-70
2023/03/20 06:17:41;;;;;;;;;;;8.10;99.90;;;;;;5066177;28;19921;-68
2023/03/20 06:20:08;;;;;;;;;;;8.10;99.90;;;;;;5057400;28;20224;-69
2023/03/20 06:22:35;;;;;;;;;;;8.20;99.90;;;;;;5065757;28;20215;-75
2023/03/20 06:25:01;;;;;;;;;;;8.20;99.90;;;;;;5066314;28;19940;-68
2023/03/20 06:27:29;;;;;;;;;;;8.20;99.90;;;;;;5065437;28;20175;-69
2023/03/20 06:29:56;;;;;;;;;;;8.20;99.90;;;;;;5065584;28;20093;-72
2023/03/20 06:32:24;;;;;;;;;;;8.20;99.90;;;;;;5066008;28;19984;-71
2023/03/20 06:34:51;;;;;;;;;;;8.20;99.90;;;;;;5064617;28;19921;-70
2023/03/20 06:37:18;;;;;;;;;;;8.20;99.90;;;;;;5065366;28;19985;-70
2023/03/20 06:39:45;;;;;;;;;;;8.20;99.90;;;;;;5066002;28;19923;-70
2023/03/20 06:42:12;;;;;;;;;;;8.30;99.90;;;;;;5065898;28;20012;-70
2023/03/20 06:44:39;;;;;;;;;;;8.30;99.90;;;;;;5065810;28;19921;-70
2023/03/20 06:47:05;;;;;;;;;;;8.30;99.90;;;;;;5064986;28;19924;-70
2023/03/20 06:49:33;;;;;;;;;;;8.30;99.90;;;;;;5065516;28;19987;-70
2023/03/20 06:52:00;;;;;;;;;;;8.30;99.90;;;;;;5065346;28;19921;-70
2023/03/20 06:54:26;;;;;;;;;;;8.30;99.90;;;;;;5065780;28;19920;-70
2023/03/20 06:56:53;;;;;;;;;;;8.30;99.90;;;;;;5064890;28;19988;-70
2023/03/20 06:59:20;;;;;;;;;;;8.30;99.90;;;;;;5065386;28;20097;-70
2023/03/20 07:01:46;;;;;;;;;;;8.20;99.90;;;;;;5065413;28;19964;-70
2023/03/20 07:04:13;;;;;;;;;;;8.20;99.90;;;;;;5065514;28;19979;-71
2023/03/20 07:06:41;;;;;;;;;;;8.30;99.90;;;;;;5064802;28;19991;-71
2023/03/20 07:09:08;;;;;;;;;;;8.30;99.90;;;;;;5065101;28;19956;-70
2023/03/20 07:11:34;;;;;;;;;;;8.30;99.90;;;;;;5065374;28;20004;-70
2023/03/20 07:14:02;;;;;;;;;;;8.40;99.90;;;;;;5065064;28;19999;-69
2023/03/20 07:16:28;;;;;;;;;;;8.40;99.90;;;;;;5064636;28;19928;-70
2023/03/20 07:18:55;;;;;;;;;;;8.40;99.90;;;;;;5064241;28;19927;-70
2023/03/20 07:21:22;;;;;;;;;;;8.40;99.90;;;;;;5065267;28;19987;-70
2023/03/20 07:23:50;;;;;;;;;;;8.40;99.90;;;;;;5060728;28;20223;-70
2023/03/20 07:26:17;;;;;;;;;;;8.40;99.90;;;;;;5063869;28;19929;-70
2023/03/20 07:28:43;;;;;;;;;;;8.50;99.90;;;;;;5064964;28;19987;-70
2023/03/20 07:31:18;;;;;;;;;;;8.50;99.90;;;;;;5078873;28;20255;-69
2023/03/20 07:33:44;;;;;;;;;;;8.50;99.90;;;;;;5065020;28;20171;-70
2023/03/20 07:36:11;;;;;;;;;;;8.50;99.90;;;;;;5064292;28;20205;-69
2023/03/20 07:38:38;;;;;;;;;;;8.50;99.90;;;;;;5064499;28;19967;-70
2023/03/20 07:41:06;;;;;;;;;;;8.50;99.90;;;;;;5064636;28;19948;-70
2023/03/20 07:43:33;;;;;;;;;;;8.60;99.90;;;;;;5064822;28;19963;-70
2023/03/20 07:46:01;;;;;;;;;;;8.60;99.90;;;;;;5064140;28;20260;-70
2023/03/20 07:48:28;;;;;;;;;;;8.60;99.90;;;;;;5064667;28;19920;-70
2023/03/20 07:50:54;;;;;;;;;;;8.70;99.90;;;;;;5064610;28;20160;-70
2023/03/20 07:53:21;;;;;;;;;;;8.70;99.90;;;;;;5064651;28;19956;-70
2023/03/20 07:55:47;;;;;;;;;;;8.80;99.90;;;;;;5064196;28;19959;-70
2023/03/20 07:58:15;;;;;;;;;;;8.80;99.90;;;;;;5057595;28;20271;-69
2023/03/20 08:00:42;;;;;;;;;;;8.90;99.90;;;;;;5064186;28;19984;-69
2023/03/20 08:03:09;;;;;;;;;;;8.90;99.90;;;;;;5064281;28;20167;-70
2023/03/20 08:05:35;;;;;;;;;;;9.00;99.90;;;;;;5064155;28;19984;-70
2023/03/20 08:08:02;;;;;;;;;;;9.10;99.90;;;;;;5063986;28;19983;-70
2023/03/20 08:10:28;;;;;;;;;;;9.20;99.90;;;;;;5063925;28;19983;-71
2023/03/20 08:12:55;;;;;;;;;;;9.20;99.90;;;;;;5064605;28;19920;-70
2023/03/20 08:15:23;;;;;;;;;;;9.20;99.90;;;;;;5064129;28;20028;-70
2023/03/20 08:17:50;;;;;;;;;;;9.20;99.90;;;;;;5063549;28;19955;-70
2023/03/20 08:20:17;;;;;;;;;;;9.30;99.90;;;;;;5044345;28;19951;-70
2023/03/20 08:22:44;;;;;;;;;;;9.30;99.90;;;;;;5044235;28;19984;-70
2023/03/20 08:25:11;;;;;;;;;;;9.40;99.90;;;;;;5053101;28;20181;-70
2023/03/20 08:27:38;;;;;;;;;;;9.40;99.90;;;;;;5063025;28;19927;-70
2023/03/20 08:30:05;;;;;;;;;;;9.40;99.90;;;;;;5063041;28;19925;-70
2023/03/20 08:32:33;;;;;;;;;;;9.50;99.90;;;;;;5063419;28;19943;-70
2023/03/20 08:35:00;;;;;;;;;;;9.50;99.90;;;;;;5063896;28;19921;-69
2023/03/20 08:37:26;;;;;;;;;;;9.60;99.90;;;;;;5063602;28;19921;-70
2023/03/20 08:39:53;;;;;;;;;;;9.50;99.90;;;;;;5063472;28;19921;-70
2023/03/20 08:42:19;;;;;;;;;;;9.60;99.90;;;;;;5063755;28;19952;-70
2023/03/20 08:44:47;;;;;;;;;;;9.60;99.90;;;;;;5063782;28;19948;-70
2023/03/20 08:47:13;;;;;;;;;;;9.60;99.90;;;;;;5063101;28;19982;-72
2023/03/20 08:49:42;;;;;;;;;;;9.50;99.90;;;;;;5062455;28;19988;-70
2023/03/20 08:52:09;;;;;;;;;;;9.50;99.90;;;;;;5063532;28;19921;-70
2023/03/20 08:54:35;;;;;;;;;;;9.50;99.90;;;;;;5063707;28;19936;-70
2023/03/20 08:57:02;;;;;;;;;;;9.40;99.90;;;;;;5063271;28;20275;-70
2023/03/20 08:59:30;;;;;;;;;;;9.50;99.90;;;;;;5043761;28;19921;-70
2023/03/20 09:01:56;;;;;;;;;;;9.50;99.90;;;;;;5043939;28;19967;-70
2023/03/20 09:04:24;;;;;;;;;;;9.50;99.90;;;;;;5044003;28;20183;-70
2023/03/20 09:06:52;;;;;;;;;;;9.50;99.90;;;;;;5045553;28;19928;-71
2023/03/20 09:09:20;;;;;;;;;;;9.60;99.90;;;;;;5061094;28;19944;-70
2023/03/20 09:11:47;;;;;;;;;;;9.70;99.90;;;;;;5063006;28;19925;-71
2023/03/20 09:14:13;;;;;;;;;;;9.70;99.90;;;;;;5063116;28;19920;-70
2023/03/20 09:16:40;;;;;;;;;;;9.70;99.90;;;;;;5046105;28;19921;-70
2023/03/20 09:19:07;;;;;;;;;;;9.70;99.90;;;;;;5043501;28;19948;-70
2023/03/20 09:21:35;;;;;;;;;;;9.70;99.90;;;;;;5040803;28;19988;-70
2023/03/20 09:24:04;;;;;;;;;;;9.70;99.90;;;;;;5049911;28;19921;-70
2023/03/20 09:26:30;;;;;;;;;;;9.60;99.90;;;;;;5062776;28;20374;-70
2023/03/20 09:28:57;;;;;;;;;;;9.60;99.90;;;;;;5063012;28;19987;-70
2023/03/20 09:31:24;;;;;;;;;;;9.70;99.90;;;;;;5062934;28;19928;-70
2023/03/20 09:33:50;;;;;;;;;;;9.70;99.90;;;;;;5063271;28;19952;-70
2023/03/20 09:36:17;;;;;;;;;;;9.80;99.90;;;;;;5062340;28;19984;-71
2023/03/20 09:38:43;;;;;;;;;;;9.80;99.90;;;;;;5063081;28;19920;-70
2023/03/20 09:41:17;;;;;;;;;;;9.80;99.90;;;;;;5056720;28;19984;-70
2023/03/20 09:43:57;;;;;;;;;;;9.80;99.90;;;;;;5046921;28;19988;-70
2023/03/20 09:46:33;;;;;;;;;;;9.90;99.90;;;;;;5043596;28;19928;-70
2023/03/20 09:49:03;;;;;;;;;;;9.90;99.90;;;;;;5046637;28;19988;-70
2023/03/20 09:51:34;;;;;;;;;;;10.00;99.90;;;;;;5047053;28;19920;-70
2023/03/20 09:54:04;;;;;;;;;;;10.10;99.90;;;;;;5046663;28;19921;-70
2023/03/20 09:56:32;;;;;;;;;;;10.20;99.90;;;;;;5063622;28;20085;-70
2023/03/20 09:58:59;;;;;;;;;;;10.30;99.90;;;;;;5065109;28;20098;-70
2023/03/20 10:01:29;;;;;;;;;;;10.30;99.90;;;;;;5065052;28;20243;-70
2023/03/20 10:03:56;;;;;;;;;;;10.30;99.90;;;;;;5066508;28;19992;-70
2023/03/20 10:06:24;;;;;;;;;;;10.30;99.90;;;;;;5065415;28;19992;-70
2023/03/20 10:08:51;;;;;;;;;;;10.30;99.90;;;;;;5065976;28;19987;-70
2023/03/20 10:11:24;;;;;;;;;;;10.30;99.90;;;;;;5066684;28;19979;-70
2023/03/20 10:13:58;;;;;;;;;;;10.30;99.90;;;;;;5066561;28;19959;-70
2023/03/20 10:16:31;;;;;;;;;;;10.30;99.90;;;;;;5065609;28;20226;-70
2023/03/20 10:19:01;;;;;;;;;;;10.40;99.90;;;;;;5066158;28;19921;-70
2023/03/20 10:21:32;;;;;;;;;;;10.50;99.90;;;;;;5066129;28;20123;-69
2023/03/20 10:24:00;;;;;;;;;;;10.60;99.90;;;;;;5066539;28;19921;-70
2023/03/20 10:26:28;;;;;;;;;;;10.60;99.90;;;;;;5065034;28;19992;-71
2023/03/20 10:28:57;;;;;;;;;;;10.70;99.90;;;;;;5066368;28;19984;-70
2023/03/20 10:31:34;;;;;;;;;;;10.70;99.90;;;;;;5065892;28;20268;-70
2023/03/20 10:34:16;;;;;;;;;;;10.90;99.90;;;;;;5066168;28;19920;-71
2023/03/20 10:36:49;;;;;;;;;;;11.00;99.90;;;;;;5060438;28;19927;-70
2023/03/20 10:39:18;;;;;;;;;;;11.20;99.90;;;;;;5065743;28;19927;-71
2023/03/20 10:41:50;;;;;;;;;;;11.20;99.90;;;;;;5058826;28;19920;-70
2023/03/20 10:44:27;;;;;;;;;;;11.20;99.90;;;;;;5065537;28;19927;-70
2023/03/20 10:46:55;;;;;;;;;;;11.10;99.90;;;;;;5065243;28;19921;-70
2023/03/20 10:49:26;;;;;;;;;;;11.10;99.90;;;;;;5065934;28;19924;-71
2023/03/20 10:51:55;;;;;;;;;;;11.10;99.90;;;;;;5065385;28;19921;-71
2023/03/20 10:54:24;;;;;;;;;;;11.10;99.90;;;;;;5065140;28;19925;-70
2023/03/20 10:56:54;;;;;;;;;;;11.00;99.90;;;;;;5060973;28;19921;-70
2023/03/20 10:59:24;;;;;;;;;;;11.10;99.90;;;;;;5062918;28;19921;-71
2023/03/20 11:01:50;;;;;;;;;;;11.20;99.90;;;;;;5065503;28;20204;-70
2023/03/20 11:04:17;;;;;;;;;;;11.20;99.90;;;;;;5065453;28;19988;-70
2023/03/20 11:09:47;;;;;;;;;;;11.20;99.90;;;;;;5045371;28;20223;-70
2023/03/20 11:12:16;;;;;;;;;;;11.30;99.90;;;;;;5043803;28;19997;-70
2023/03/20 11:14:45;;;;;;;;;;;11.40;99.90;;;;;;5057590;28;19924;-71
2023/03/20 11:17:11;;;;;;;;;;;11.40;99.90;;;;;;5064556;28;20172;-70
2023/03/20 11:19:39;;;;;;;;;;;11.40;99.90;;;;;;5065059;28;19942;-70
2023/03/20 11:22:08;;;;;;;;;;;11.40;99.90;;;;;;5063671;28;19921;-70
2023/03/20 11:24:36;;;;;;;;;;;11.40;99.90;;;;;;5065118;28;19984;-70
2023/03/20 11:27:07;;;;;;;;;;;11.40;99.90;;;;;;5064227;28;19921;-70
2023/03/20 11:29:34;;;;;;;;;;;11.40;99.90;;;;;;5064879;28;20251;-72
2023/03/20 11:32:07;;;;;;;;;;;11.40;99.90;;;;;;5057132;28;19921;-70
2023/03/20 11:34:36;;;;;;;;;;;11.40;99.90;;;;;;5064889;28;19921;-71
2023/03/20 11:37:06;;;;;;;;;;;11.50;99.90;;;;;;5063825;28;20098;-70
2023/03/20 11:39:33;;;;;;;;;;;11.50;99.90;;;;;;5064817;28;20089;-70
2023/03/20 11:42:00;;;;;;;;;;;11.60;99.90;;;;;;5053759;28;19988;-70
2023/03/20 11:44:28;;;;;;;;;;;11.60;99.90;;;;;;5052378;28;19988;-70
2023/03/20 11:46:56;;;;;;;;;;;11.60;99.90;;;;;;5063773;28;19920;-70
2023/03/20 11:49:26;;;;;;;;;;;11.60;99.90;;;;;;5064606;28;19928;-70
2023/03/20 11:51:53;;;;;;;;;;;11.60;99.90;;;;;;5064519;28;19921;-70
2023/03/20 11:54:21;;;;;;;;;;;11.60;99.90;;;;;;5064688;28;20123;-70
2023/03/20 11:56:51;;;;;;;;;;;11.70;99.90;;;;;;5063431;28;20219;-70
2023/03/20 11:59:18;;;;;;;;;;;11.80;99.90;;;;;;5064200;28;20208;-70
2023/03/20 12:01:47;;;;;;;;;;;11.80;99.90;;;;;;5064223;28;20283;-70
2023/03/20 12:04:16;;;;;;;;;;;11.80;99.90;;;;;;5063812;28;19921;-70
2023/03/20 12:06:47;;;;;;;;;;;11.80;99.90;;;;;;5064018;28;20117;-69
2023/03/20 12:09:26;;;;;;;;;;;11.90;99.90;;;;;;5063949;28;19921;-69
2023/03/20 12:11:55;;;;;;;;;;;11.90;99.90;;;;;;5062745;28;19995;-69
2023/03/20 12:14:25;;;;;;;;;;;11.90;99.90;;;;;;5062204;28;19927;-68
2023/03/20 12:16:55;;;;;;;;;;;11.80;99.90;;;;;;5062842;28;20231;-68
2023/03/20 12:19:25;;;;;;;;;;;11.70;99.90;;;;;;5062856;28;19921;-69
2023/03/20 12:21:55;;;;;;;;;;;11.70;99.90;;;;;;5063406;28;19927;-68
2023/03/20 12:24:27;;;;;;;;;;;11.70;99.90;;;;;;5061590;28;19991;-69
2023/03/20 12:26:56;;;;;;;;;;;11.70;99.90;;;;;;5060846;28;19921;-69
2023/03/20 12:29:31;;;;;;;;;;;11.70;99.90;;;;;;5054082;28;19944;-69
2023/03/20 12:32:01;;;;;;;;;;;11.70;99.90;;;;;;5054675;28;19975;-69
2023/03/20 12:34:32;;;;;;;;;;;11.80;99.90;;;;;;5061287;28;19959;-68
2023/03/20 12:37:00;;;;;;;;;;;11.80;99.90;;;;;;5057097;28;19959;-69
2023/03/20 12:39:28;;;;;;;;;;;11.80;99.90;;;;;;5063244;28;19967;-69
2023/03/20 12:42:03;;;;;;;;;;;12.00;99.90;;;;;;5063583;28;19927;-68
2023/03/20 12:44:34;;;;;;;;;;;12.10;99.90;;;;;;5056560;28;19921;-68
2023/03/20 12:47:07;;;;;;;;;;;12.10;99.90;;;;;;5058083;28;19921;-70
2023/03/20 12:49:38;;;;;;;;;;;12.20;99.90;;;;;;5063732;28;19984;-70
2023/03/20 12:52:12;;;;;;;;;;;12.20;99.90;;;;;;5062970;28;19921;-70
2023/03/20 12:54:46;;;;;;;;;;;12.30;99.90;;;;;;5063199;28;20167;-70
2023/03/20 12:57:18;;;;;;;;;;;12.40;99.90;;;;;;5062508;28;19928;-70
2023/03/20 12:59:51;;;;;;;;;;;12.50;99.90;;;;;;5063610;28;20216;-71
2023/03/20 13:02:23;;;;;;;;;;;12.70;99.90;;;;;;5061918;28;20224;-70
2023/03/20 13:04:55;;;;;;;;;;;12.70;99.90;;;;;;5063501;28;19984;-70
2023/03/20 13:07:27;;;;;;;;;;;12.70;99.90;;;;;;5062077;28;19920;-71
2023/03/20 13:10:08;;;;;;;;;;;12.70;99.90;;;;;;5062745;28;19927;-73
2023/03/20 13:12:44;;;;;;;;;;;12.70;99.90;;;;;;5062950;28;19921;-69
2023/03/20 13:15:15;;;;;;;;;;;12.60;99.90;;;;;;5063105;28;19921;-70
2023/03/20 13:17:47;;;;;;;;;;;12.50;99.90;;;;;;5066290;28;19983;-70
2023/03/20 13:20:20;;;;;;;;;;;12.40;99.90;;;;;;5067127;28;19921;-70
2023/03/20 13:22:54;;;;;;;;;;;12.30;99.90;;;;;;5067447;28;19925;-70
2023/03/20 13:25:25;;;;;;;;;;;12.40;99.90;;;;;;5067121;28;19991;-70
2023/03/20 13:27:56;;;;;;;;;;;12.40;99.90;;;;;;5066285;28;19921;-69
2023/03/20 13:30:26;;;;;;;;;;;12.40;99.90;;;;;;5066947;28;19921;-70
2023/03/20 13:32:56;;;;;;;;;;;12.30;99.90;;;;;;5066845;28;19921;-70
2023/03/20 13:35:28;;;;;;;;;;;12.30;99.90;;;;;;5067095;28;19920;-69
2023/03/20 13:37:57;;;;;;;;;;;12.20;99.90;;;;;;5066471;28;20093;-69
2023/03/20 13:40:26;;;;;;;;;;;12.10;99.90;;;;;;5066219;28;19928;-70
2023/03/20 13:42:55;;;;;;;;;;;12.10;99.90;;;;;;5066874;28;19921;-70
2023/03/20 13:45:25;;;;;;;;;;;12.10;99.90;;;;;;5066494;28;20113;-70
2023/03/20 13:47:52;;;;;;;;;;;12.10;99.90;;;;;;5065861;28;19984;-71
2023/03/20 13:50:27;;;;;;;;;;;12.10;99.90;;;;;;5066608;28;19927;-70
2023/03/20 13:52:57;;;;;;;;;;;12.00;99.90;;;;;;5067140;28;19963;-70
2023/03/20 13:55:29;;;;;;;;;;;12.00;99.90;;;;;;5066472;28;19921;-70
2023/03/20 13:58:07;;;;;;;;;;;12.10;99.90;;;;;;5066659;28;19937;-70
2023/03/20 14:00:35;;;;;;;;;;;12.00;99.90;;;;;;5066174;28;19980;-70
2023/03/20 14:03:06;;;;;;;;;;;12.10;99.90;;;;;;5066620;28;19995;-71
2023/03/20 14:05:36;;;;;;;;;;;12.10;99.90;;;;;;5066215;28;19921;-70
2023/03/20 14:08:20;;;;;;;;;;;12.20;99.90;;;;;;5066159;28;19983;-70
2023/03/20 14:10:48;;;;;;;;;;;12.20;99.90;;;;;;5066245;28;19928;-70
2023/03/20 14:13:17;;;;;;;;;;;12.10;99.90;;;;;;5066235;28;19921;-69
2023/03/20 14:15:49;;;;;;;;;;;12.00;99.90;;;;;;5066144;28;19929;-69
2023/03/20 14:18:17;;;;;;;;;;;12.00;99.90;;;;;;5065258;28;19921;-70
2023/03/20 14:20:44;;;;;;;;;;;12.10;99.90;;;;;;5066310;28;19975;-71
2023/03/20 14:23:16;;;;;;;;;;;12.20;99.90;;;;;;5065967;28;19992;-70
2023/03/20 14:25:43;;;;;;;;;;;12.30;99.90;;;;;;5066112;28;19991;-70
2023/03/20 14:28:26;;;;;;;;;;;12.30;99.90;;;;;;5062674;28;19976;-71
2023/03/20 14:31:11;;;;;;;;;;;12.40;99.90;;;;;;5047253;28;19963;-69
2023/03/20 14:33:42;;;;;;;;;;;12.60;99.90;;;;;;5065393;28;19921;-70
2023/03/20 14:36:18;;;;;;;;;;;12.70;99.90;;;;;;5055207;28;19921;-71
2023/03/20 14:38:46;;;;;;;;;;;12.70;99.90;;;;;;5055641;28;19927;-69